Time;durP1;ratioP1;P1;durP2;ratioP2;P2;SDS_P1;SDS_P2;PMS_P1;PMS_P2;Temp;Humidity;BMP_temperature;BMP_pressure;BME280_temperature;BME280_humidity;BME280_pressure;Samples;Min_cycle;Max_cycle;Signal;HPM_P1;HPM_P2
2022/05/05 00:01:28;;;;;;;26.05;2.72;;;;;;;21.36;57.28;99520.97;7313892;19;129232;-38
2022/05/05 00:03:53;;;;;;;21.55;2.95;;;;;;;21.37;57.10;99522.59;7310518;19;129264;-37
2022/05/05 00:06:18;;;;;;;19.98;2.20;;;;;;;21.36;56.93;99523.59;7312790;19;129122;-40
2022/05/05 00:08:43;;;;;;;16.10;2.43;;;;;;;21.35;57.44;99514.09;7311342;19;154410;-40
2022/05/05 00:16:36;;;;;;;19.48;2.33;;;;;;;21.39;57.26;99510.22;7308783;19;129109;-39
2022/05/05 00:19:02;;;;;;;30.23;3.58;;;;;;;21.39;56.51;99510.22;7311810;19;154962;-37
2022/05/05 00:21:27;;;;;;;13.77;1.80;;;;;;;21.39;57.17;99515.47;7312734;19;130109;-38
2022/05/05 00:23:52;;;;;;;27.25;3.08;;;;;;;21.38;57.44;99518.22;7308454;19;159275;-38
2022/05/05 00:26:18;;;;;;;16.05;1.90;;;;;;;21.36;57.32;99513.13;7311597;19;154517;-42
2022/05/05 00:28:43;;;;;;;19.75;2.17;;;;;;;21.38;57.10;99521.66;7311655;19;153801;-42
2022/05/05 00:31:08;;;;;;;11.15;1.52;;;;;;;21.28;56.51;99497.31;7310930;19;158555;-40
2022/05/05 00:33:33;;;;;;;20.45;2.50;;;;;;;21.38;56.97;99515.59;7308045;19;159171;-38
2022/05/05 00:35:59;;;;;;;25.40;2.83;;;;;;;21.40;57.89;99522.31;7307990;19;154356;-39
2022/05/05 00:38:24;;;;;;;16.08;2.25;;;;;;;21.37;57.49;99520.00;7311405;19;153961;-38
2022/05/05 00:40:49;;;;;;;19.75;2.20;;;;;;;21.40;56.97;99522.31;7309545;19;129623;-41
2022/05/05 00:43:15;;;;;;;21.92;2.90;;;;;;;21.41;57.30;99521.38;7308637;19;159158;-41
2022/05/05 00:45:40;;;;;;;16.15;1.98;;;;;;;21.38;57.78;99519.06;7310494;19;129097;-38
2022/05/05 00:48:07;;;;;;;19.50;2.20;;;;;;;21.38;57.56;99519.06;7309946;19;154788;-39
2022/05/05 00:50:33;;;;;;;17.75;2.13;;;;;;;21.39;57.67;99520.69;7312076;19;129154;-43
2022/05/05 00:52:59;;;;;;;19.95;2.50;;;;;;;21.30;57.63;99498.00;7309774;19;129806;-38
2022/05/05 00:55:24;;;;;;;33.10;4.30;;;;;;;21.35;57.29;99503.66;7310503;19;129594;-37
2022/05/05 00:57:50;;;;;;;23.88;2.53;;;;;;;21.37;56.95;99517.38;7312437;19;129193;-37
2022/05/05 01:00:15;;;;;;;18.15;2.33;;;;;;;21.40;57.46;99513.69;7310606;19;159136;-38
2022/05/05 01:02:40;;;;;;;22.73;2.53;;;;;;;21.41;56.29;99518.75;7310493;19;129854;-38
2022/05/05 01:05:06;;;;;;;20.08;2.38;;;;;;;21.42;56.80;99514.38;7309994;19;154802;-38
2022/05/05 01:07:33;;;;;;;25.77;2.90;;;;;;;21.41;57.77;99513.53;7310329;19;129123;-39
2022/05/05 01:09:59;;;;;;;21.48;2.63;;;;;;;21.41;57.41;99504.84;7311317;19;129455;-39
2022/05/05 01:12:29;;;;;;;20.08;2.25;;;;;;;21.34;57.60;99488.91;7311064;19;130879;-39
2022/05/05 01:14:54;;;;;;;17.85;2.13;;;;;;;21.37;56.81;99506.91;7309563;19;129105;-39
2022/05/05 01:17:21;;;;;;;21.75;2.50;;;;;;;21.38;57.17;99497.28;7310254;19;129329;-38
2022/05/05 01:19:47;;;;;;;11.93;1.48;;;;;;;21.39;57.08;99498.94;7312237;19;129181;-39
2022/05/05 01:22:12;;;;;;;16.58;2.20;;;;;;;21.37;56.44;99493.03;7310817;19;129706;-42
2022/05/05 01:30:06;;;;;;;18.02;2.33;;;;;;;21.39;56.83;99499.75;7311287;19;128966;-38
2022/05/05 01:32:32;;;;;;;24.57;3.07;;;;;;;21.41;57.09;99507.47;7309701;19;131092;-38
2022/05/05 01:34:58;;;;;;;19.67;2.35;;;;;;;21.41;56.51;99508.31;7309856;19;128876;-39
2022/05/05 01:37:24;;;;;;;29.30;3.43;;;;;;;21.43;57.59;99506.38;7309702;19;129333;-38
2022/05/05 01:39:49;;;;;;;17.42;2.00;;;;;;;21.31;57.71;99494.41;7309241;19;140936;-39
2022/05/05 01:42:14;;;;;;;15.38;1.88;;;;;;;21.42;56.85;99507.31;7308943;19;158462;-42
2022/05/05 01:44:39;;;;;;;20.33;2.38;;;;;;;21.38;57.24;99500.75;7305599;19;151805;-38
2022/05/05 01:47:05;;;;;;;14.23;1.80;;;;;;;21.41;56.41;99516.16;7308729;19;152974;-36
2022/05/05 01:49:30;;;;;;;19.08;2.50;;;;;;;21.41;57.47;99518.75;7309219;19;129205;-37
2022/05/05 01:51:55;;;;;;;50.63;5.25;;;;;;;21.41;57.79;99518.75;7307628;19;158653;-38
2022/05/05 01:54:21;;;;;;;19.05;2.42;;;;;;;21.41;57.36;99524.00;7311068;19;129247;-37
2022/05/05 01:56:46;;;;;;;16.15;1.67;;;;;;;21.39;57.48;99523.31;7314789;19;129270;-37
2022/05/05 01:59:11;;;;;;;17.30;2.13;;;;;;;21.41;57.86;99524.00;7316203;19;158433;-38
2022/05/05 02:01:36;;;;;;;25.02;2.67;;;;;;;21.40;56.81;99527.56;7314471;19;158420;-38
2022/05/05 02:04:02;;;;;;;14.35;1.88;;;;;;;21.43;57.41;99535.16;7313352;19;154747;-38
2022/05/05 02:06:27;;;;;;;17.52;2.08;;;;;;;21.40;57.36;99532.78;7315117;19;153820;-37
2022/05/05 02:08:52;;;;;;;17.88;2.25;;;;;;;21.40;57.22;99538.00;7316355;19;144625;-37
2022/05/05 02:11:18;;;;;;;16.67;1.90;;;;;;;21.42;56.78;99532.69;7315897;19;149526;-42
2022/05/05 02:13:43;;;;;;;21.10;2.35;;;;;;;21.41;57.15;99547.53;7315415;19;128954;-39
2022/05/05 02:16:08;;;;;;;16.45;2.00;;;;;;;21.43;57.46;99548.22;7312671;19;154263;-38
2022/05/05 02:18:34;;;;;;;23.58;2.70;;;;;;;21.42;56.78;99554.41;7315081;19;158357;-38
2022/05/05 02:20:59;;;;;;;12.23;1.70;;;;;;;21.40;57.59;99558.13;7315777;19;129811;-40
2022/05/05 02:23:24;;;;;;;19.77;2.33;;;;;;;21.41;57.74;99555.38;7313667;19;155133;-38
2022/05/05 02:25:49;;;;;;;20.10;2.50;;;;;;;21.42;57.26;99561.44;7313812;19;154041;-38
2022/05/05 02:28:15;;;;;;;16.90;2.10;;;;;;;21.43;57.55;99563.91;7316145;19;131279;-38
2022/05/05 02:30:40;;;;;;;14.97;1.83;;;;;;;21.43;56.97;99556.06;7314824;19;157825;-38
2022/05/05 02:33:05;;;;;;;20.05;2.88;;;;;;;21.36;57.36;99546.28;7313463;19;131961;-38
2022/05/05 02:35:31;;;;;;;26.85;3.47;;;;;;;21.42;56.84;99548.38;7314915;19;129183;-38
2022/05/05 02:40:40;;;;;;;13.32;1.80;;;;;;;21.42;57.35;99549.16;7315775;19;129423;-42
2022/05/05 02:43:06;;;;;;;25.98;3.33;;;;;;;21.42;56.19;99551.78;7315159;19;129078;-37
2022/05/05 02:45:31;;;;;;;18.50;2.20;;;;;;;21.41;57.13;99550.16;7314974;19;129830;-37
2022/05/05 02:47:58;;;;;;;19.88;2.55;;;;;;;21.42;57.06;99556.22;7314721;19;152249;-41
2022/05/05 02:50:23;;;;;;;15.75;1.92;;;;;;;21.42;57.37;99554.41;7314140;19;129236;-38
2022/05/05 02:52:49;;;;;;;19.73;2.40;;;;;;;21.45;57.22;99551.50;7315204;19;129256;-44
2022/05/05 02:55:14;;;;;;;27.40;2.95;;;;;;;21.44;56.88;99547.25;7312329;19;154298;-38
2022/05/05 02:57:39;;;;;;;16.60;1.80;;;;;;;21.44;56.71;99552.47;7313782;19;143820;-38
2022/05/05 03:00:12;;;;;;;34.67;4.10;;;;;;;21.44;57.09;99556.88;7312995;19;159285;-37
2022/05/05 03:02:41;;;;;;;11.85;1.48;;;;;;;21.42;56.76;99562.25;7314394;19;129389;-37
2022/05/05 03:05:07;;;;;;;30.48;3.72;;;;;;;21.42;56.83;99559.63;7313858;19;129429;-37
2022/05/05 03:07:32;;;;;;;20.23;2.38;;;;;;;21.42;57.10;99561.44;7313506;19;129422;-38
2022/05/05 03:09:57;;;;;;;30.08;3.65;;;;;;;21.42;56.96;99562.25;7315083;19;129515;-39
2022/05/05 03:12:23;;;;;;;18.55;2.20;;;;;;;21.42;57.46;99556.22;7313188;19;155196;-37
2022/05/05 03:14:49;;;;;;;17.40;1.88;;;;;;;21.45;57.17;99556.72;7313144;19;147132;-41
2022/05/05 03:17:14;;;;;;;36.63;3.47;;;;;;;21.46;57.50;99558.41;7311257;19;129141;-38
2022/05/05 03:19:40;;;;;;;17.02;1.90;;;;;;;21.40;57.33;99558.94;7314294;19;152566;-38
2022/05/05 03:22:05;;;;;;;19.80;2.30;;;;;;;21.42;56.95;99557.00;7315314;19;129452;-37
2022/05/05 03:24:31;;;;;;;12.75;1.75;;;;;;;21.45;57.73;99561.97;7310615;19;129160;-40
2022/05/05 03:26:57;;;;;;;24.33;2.92;;;;;;;21.41;56.77;99558.00;7312393;19;158230;-40
2022/05/05 03:29:22;;;;;;;17.48;1.92;;;;;;;21.42;57.24;99562.25;7315512;19;130439;-37
2022/05/05 03:31:47;;;;;;;19.98;2.63;;;;;;;21.44;56.69;99565.56;7314132;19;129158;-37
2022/05/05 03:34:12;;;;;;;19.63;2.58;;;;;;;21.44;56.15;99576.00;7310862;19;154116;-40
2022/05/05 03:36:38;;;;;;;17.13;2.20;;;;;;;21.45;56.91;99571.63;7311983;19;136550;-38
2022/05/05 03:39:03;;;;;;;23.75;2.90;;;;;;;21.45;57.24;99571.63;7315723;19;129673;-38
2022/05/05 03:41:28;;;;;;;14.35;2.08;;;;;;;21.43;57.36;99569.16;7313112;19;154396;-42
2022/05/05 03:43:54;;;;;;;19.13;2.25;;;;;;;21.45;56.16;99571.63;7310654;19;154336;-37
2022/05/05 03:46:19;;;;;;;20.63;2.45;;;;;;;21.44;56.61;99570.78;7311343;19;159439;-38
2022/05/05 03:48:45;;;;;;;20.65;2.35;;;;;;;21.36;56.70;99562.81;7313639;19;129638;-40
2022/05/05 03:51:10;;;;;;;22.63;2.67;;;;;;;21.44;57.34;99577.78;7313586;19;128785;-38
2022/05/05 03:53:35;;;;;;;27.60;3.20;;;;;;;21.46;57.30;99573.25;7308539;19;154400;-42
2022/05/05 03:56:00;;;;;;;26.80;2.85;;;;;;;21.46;57.32;99578.50;7308707;19;159534;-37
2022/05/05 03:58:26;;;;;;;44.95;5.70;;;;;;;21.42;57.21;99570.09;7309255;19;129823;-36
2022/05/05 04:00:51;;;;;;;9.13;1.65;;;;;;;21.43;57.12;99579.59;7309095;19;129003;-38
2022/05/05 04:03:32;;;;;;;19.83;2.42;;;;;;;21.43;57.00;99581.38;7310782;19;129103;-38
2022/05/05 04:06:02;;;;;;;24.50;3.05;;;;;;;21.34;57.67;99569.13;7309120;19;130677;-40
2022/05/05 04:08:28;;;;;;;18.67;2.30;;;;;;;21.32;56.33;99569.28;7313459;19;129938;-39
2022/05/05 04:10:53;;;;;;;33.95;4.00;;;;;;;21.44;57.21;99581.25;7309152;19;129520;-40
2022/05/05 04:13:19;;;;;;;20.17;2.30;;;;;;;21.43;56.48;99579.59;7311455;19;129293;-37
2022/05/05 04:15:44;;;;;;;17.02;2.13;;;;;;;21.45;57.31;99588.13;7308672;19;129220;-41
2022/05/05 04:18:10;;;;;;;20.73;2.50;;;;;;;21.45;57.00;99587.31;7311453;19;129293;-39
2022/05/05 04:20:35;;;;;;;26.90;2.93;;;;;;;21.44;57.13;99585.66;7311815;19;155460;-38
2022/05/05 04:23:00;;;;;;;23.10;2.83;;;;;;;21.43;55.90;99590.06;7308072;19;154077;-38
2022/05/05 04:25:25;;;;;;;38.00;4.73;;;;;;;21.40;56.97;99592.13;7309752;19;158503;-38
2022/05/05 04:27:51;;;;;;;31.90;3.60;;;;;;;21.41;56.61;99602.47;7309483;19;159184;-38
2022/05/05 04:30:17;;;;;;;13.18;1.90;;;;;;;21.44;56.78;99594.31;7308104;19;129004;-39
2022/05/05 04:32:43;;;;;;;29.03;3.30;;;;;;;21.44;57.20;99594.31;7310059;19;129036;-39
2022/05/05 04:35:09;;;;;;;16.52;1.85;;;;;;;21.45;57.11;99593.34;7310267;19;130171;-38
2022/05/05 04:37:35;;;;;;;17.83;2.17;;;;;;;21.43;57.34;99605.75;7311121;19;130096;-38
2022/05/05 04:40:00;;;;;;;21.00;2.63;;;;;;;21.42;56.37;99604.09;7310178;19;128796;-41
2022/05/05 04:42:26;;;;;;;25.38;3.13;;;;;;;21.44;57.69;99607.41;7311181;19;129667;-36
2022/05/05 04:44:51;;;;;;;28.52;2.95;;;;;;;21.45;57.21;99609.03;7308668;19;129521;-39
2022/05/05 04:47:17;;;;;;;19.35;2.53;;;;;;;21.44;57.46;99604.78;7310043;19;129473;-38
2022/05/05 04:49:42;;;;;;;24.23;3.03;;;;;;;21.37;56.73;99601.06;7310723;19;128990;-39
2022/05/05 04:52:07;;;;;;;23.65;2.50;;;;;;;21.48;57.15;99619.25;7308745;19;154034;-38
2022/05/05 04:54:33;;;;;;;27.80;3.53;;;;;;;21.45;57.65;99622.13;7306651;19;129859;-40
2022/05/05 04:56:58;;;;;;;20.33;2.60;;;;;;;21.44;57.52;99625.72;7306285;19;158450;-38
2022/05/05 04:59:23;;;;;;;43.00;4.90;;;;;;;21.46;57.58;99626.41;7304543;19;154401;-41
2022/05/05 05:01:48;;;;;;;34.77;3.83;;;;;;;21.40;57.65;99613.06;7303616;19;153979;-40
2022/05/05 05:04:14;;;;;;;23.07;2.70;;;;;;;21.52;57.47;99631.06;7305495;19;158787;-37
2022/05/05 05:06:39;;;;;;;28.67;3.28;;;;;;;21.44;56.59;99628.31;7305310;19;130412;-40
2022/05/05 05:09:04;;;;;;;21.42;2.63;;;;;;;21.44;56.93;99644.03;7309425;19;129060;-40
2022/05/05 05:11:30;;;;;;;44.55;4.88;;;;;;;21.46;56.67;99642.09;7303271;19;155272;-38
2022/05/05 05:13:55;;;;;;;40.85;4.57;;;;;;;21.44;57.37;99638.78;7283609;19;130606;-39
2022/05/05 05:16:20;;;;;;;25.75;3.13;;;;;;;21.45;57.30;99639.63;7296306;19;143231;-37
2022/05/05 05:18:47;;;;;;;13.48;1.75;;;;;;;21.43;56.80;99652.84;7309670;19;153254;-38
2022/05/05 05:21:12;;;;;;;24.00;2.65;;;;;;;21.45;57.54;99650.09;7303954;19;129014;-38
2022/05/05 05:23:38;;;;;;;23.70;3.15;;;;;;;21.43;56.80;99658.06;7306328;19;130530;-40
2022/05/05 05:26:03;;;;;;;26.88;3.20;;;;;;;21.44;57.42;99653.66;7308152;19;129595;-38
2022/05/05 05:28:28;;;;;;;34.13;3.80;;;;;;;21.43;57.42;99650.22;7314407;19;129389;-38
2022/05/05 05:30:53;;;;;;;24.40;3.20;;;;;;;21.38;57.72;99649.81;7314506;19;152004;-37
2022/05/05 05:33:19;;;;;;;12.15;1.75;;;;;;;21.42;57.10;99658.22;7316018;19;129630;-38
2022/05/05 05:35:45;;;;;;;15.43;2.03;;;;;;;21.42;57.12;99655.59;7315522;19;130476;-40
2022/05/05 05:38:11;;;;;;;19.80;2.00;;;;;;;21.40;57.33;99663.56;7317849;19;128794;-40
2022/05/05 05:40:37;;;;;;;22.65;3.03;;;;;;;21.41;57.84;99662.59;7317135;19;129598;-41
2022/05/05 05:43:03;;;;;;;22.63;2.80;;;;;;;21.42;56.97;99666.06;7316021;19;129159;-37
2022/05/05 05:45:28;;;;;;;38.17;5.03;;;;;;;21.39;56.94;99666.31;7316057;19;129320;-40
2022/05/05 05:47:53;;;;;;;23.63;2.88;;;;;;;21.32;57.28;99650.34;7312116;19;154453;-36
2022/05/05 05:50:19;;;;;;;5.13;1.27;;;;;;;21.40;57.65;99674.00;7317599;19;129149;-39
2022/05/05 05:52:44;;;;;;;39.40;5.20;;;;;;;21.37;57.17;99674.28;7313940;19;159165;-37
2022/05/05 05:55:09;;;;;;;18.33;2.45;;;;;;;21.36;57.10;99677.03;7314046;19;158901;-37
2022/05/05 05:57:35;;;;;;;17.48;2.70;;;;;;;21.37;57.30;99674.28;7313433;19;129062;-40
2022/05/05 06:00:00;;;;;;;23.83;3.17;;;;;;;21.36;57.31;99675.28;7314653;19;153984;-39
2022/05/05 06:05:09;;;;;;;15.88;2.22;;;;;;;21.39;58.13;99671.53;7317867;19;129360;-39
2022/05/05 06:07:34;;;;;;;13.82;2.22;;;;;;;21.26;57.74;99661.34;7315109;19;146080;-38
2022/05/05 06:10:00;;;;;;;26.52;3.53;;;;;;;21.37;57.74;99674.28;7315301;19;147499;-38
2022/05/05 06:12:25;;;;;;;26.90;3.47;;;;;;;21.37;57.78;99684.75;7312223;19;159279;-38
2022/05/05 06:14:50;;;;;;;24.45;3.55;;;;;;;21.44;57.95;99680.63;7314910;19;129523;-37
2022/05/05 06:17:15;;;;;;;16.42;2.17;;;;;;;21.40;57.87;99694.94;7311674;19;132669;-41
2022/05/05 06:19:43;;;;;;;19.27;2.55;;;;;;;21.35;57.06;99691.94;7313783;19;154198;-37
2022/05/05 06:22:09;;;;;;;65.00;8.05;;;;;;;21.40;57.63;99700.16;7313670;19;129588;-38
2022/05/05 06:24:35;;;;;;;17.30;2.47;;;;;;;21.39;57.93;99706.38;7310470;19;129464;-39
2022/05/05 06:27:00;;;;;;;15.20;2.28;;;;;;;21.44;57.57;99706.78;7314958;19;154336;-39
2022/05/05 06:29:25;;;;;;;20.70;3.03;;;;;;;21.41;57.39;99703.63;7314091;19;154603;-39
2022/05/05 06:31:51;;;;;;;21.23;2.83;;;;;;;21.28;57.16;99697.81;7313682;19;158886;-38
2022/05/05 06:34:16;;;;;;;16.08;2.00;;;;;;;21.39;57.43;99709.00;7313598;19;129325;-37
2022/05/05 06:36:41;;;;;;;11.65;2.17;;;;;;;21.35;57.08;99699.78;7313201;19;154828;-38
2022/05/05 06:39:06;;;;;;;20.52;2.70;;;;;;;21.38;57.56;99716.97;7312493;19;154169;-38
2022/05/05 06:41:32;;;;;;;20.85;3.03;;;;;;;21.44;57.95;99719.88;7313894;19;158005;-37
2022/05/05 06:43:57;;;;;;;32.22;4.53;;;;;;;21.33;57.33;99704.31;7305989;19;148263;-38
2022/05/05 06:46:23;;;;;;;21.42;2.97;;;;;;;21.43;58.07;99725.25;7315183;19;133182;-40
2022/05/05 06:48:48;;;;;;;10.77;2.05;;;;;;;21.42;57.77;99719.19;7315318;19;129166;-42
2022/05/05 06:51:13;;;;;;;13.23;2.30;;;;;;;21.41;57.90;99719.31;7314612;19;158508;-38
2022/05/05 06:53:38;;;;;;;9.77;1.90;;;;;;;21.45;57.95;99726.75;7311837;19;158332;-41
2022/05/05 06:56:04;;;;;;;26.20;3.23;;;;;;;21.41;57.37;99722.75;7313154;19;154714;-38
2022/05/05 06:58:29;;;;;;;25.00;3.50;;;;;;;21.38;57.76;99730.06;7314884;19;129247;-38
2022/05/05 07:03:39;;;;;;;10.10;1.90;;;;;;;21.38;57.52;99733.50;7314630;19;129040;-37
2022/05/05 07:06:05;;;;;;;23.10;3.28;;;;;;;21.42;57.82;99732.25;7314821;19;129599;-38
2022/05/05 07:10:52;;;;;;;23.20;2.90;;;;;;;21.43;57.44;99733.94;7315487;19;130043;-37
2022/05/05 07:11:16;;;;;;;21.08;2.75;;;;;;;21.31;57.51;99714.06;7313637;19;130054;-38
2022/05/05 07:13:41;;;;;;;14.48;2.25;;;;;;;21.38;57.40;99733.50;7313335;19;133452;-40
2022/05/05 07:16:07;;;;;;;18.87;2.73;;;;;;;21.37;57.79;99731.03;7313078;19;154496;-38
2022/05/05 07:18:32;;;;;;;20.43;2.93;;;;;;;21.43;57.42;99735.72;7313742;19;153930;-38
2022/05/05 07:20:57;;;;;;;17.27;2.53;;;;;;;21.44;57.66;99738.19;7314162;19;158252;-38
2022/05/05 07:23:22;;;;;;;25.60;3.47;;;;;;;21.46;58.04;99744.13;7311877;19;158749;-38
2022/05/05 07:25:48;;;;;;;3.60;1.20;;;;;;;21.41;57.37;99748.09;7315500;19;137237;-40
2022/05/05 07:28:15;;;;;;;26.15;3.40;;;;;;;21.47;58.16;99737.91;7313610;19;154209;-39
2022/05/05 07:30:40;;;;;;;15.25;2.33;;;;;;;21.45;58.29;99741.63;7314718;19;129325;-40
2022/05/05 07:33:06;;;;;;;22.02;2.97;;;;;;;21.35;57.53;99723.31;7312277;19;159044;-39
2022/05/05 07:35:32;;;;;;;30.10;4.18;;;;;;;21.42;57.68;99750.56;7314038;19;129423;-38
2022/05/05 07:37:58;;;;;;;28.73;3.95;;;;;;;21.46;57.05;99740.66;7309511;19;128815;-37
2022/05/05 07:40:23;;;;;;;27.42;3.67;;;;;;;21.43;57.99;99747.00;7311145;19;130602;-38
2022/05/05 07:42:49;;;;;;;19.38;2.90;;;;;;;21.42;57.26;99752.38;7311606;19;158636;-40
2022/05/05 07:45:14;;;;;;;18.85;2.50;;;;;;;21.42;57.63;99747.94;7309976;19;155117;-38
2022/05/05 07:47:39;;;;;;;14.93;2.40;;;;;;;21.32;57.47;99738.44;7313390;19;129415;-38
2022/05/05 07:50:05;;;;;;;17.05;2.78;;;;;;;21.41;57.73;99754.16;7311036;19;129262;-41
2022/05/05 07:52:30;;;;;;;38.50;5.07;;;;;;;21.42;57.52;99752.38;7312908;19;129385;-42
2022/05/05 07:54:56;;;;;;;18.55;2.78;;;;;;;21.38;57.57;99738.72;7313291;19;129078;-39
2022/05/05 07:57:22;;;;;;;33.58;3.80;;;;;;;21.42;57.84;99766.25;7308581;19;154513;-39
2022/05/05 07:59:48;;;;;;;16.38;2.45;;;;;;;21.44;57.03;99760.88;7313177;19;130736;-39
2022/05/05 08:02:15;;;;;;;21.30;2.80;;;;;;;21.44;57.77;99759.09;7312420;19;130461;-39
2022/05/05 08:04:41;;;;;;;26.40;3.55;;;;;;;21.43;57.45;99757.47;7310622;19;129162;-37
2022/05/05 08:07:07;;;;;;;20.15;2.90;;;;;;;21.49;57.67;99767.38;7311800;19;129075;-42
2022/05/05 08:09:32;;;;;;;32.90;4.05;;;;;;;21.42;58.07;99771.50;7311837;19;129277;-37
2022/05/05 08:12:01;;;;;;;22.92;3.35;;;;;;;21.48;57.72;99770.13;7312487;19;129303;-38
2022/05/05 08:14:27;;;;;;;24.15;3.22;;;;;;;21.47;57.92;99764.06;7309460;19;129284;-38
2022/05/05 08:16:53;;;;;;;16.43;2.57;;;;;;;21.48;57.59;99760.50;7311908;19;129450;-40
2022/05/05 08:19:20;;;;;;;11.27;1.73;;;;;;;21.40;57.80;99762.94;7312788;19;129096;-40
2022/05/05 08:21:45;;;;;;;29.02;3.67;;;;;;;21.39;58.17;99763.91;7313257;19;129527;-38
2022/05/05 08:29:38;;;;;;;18.77;2.53;;;;;;;21.48;58.14;99780.59;7312586;19;129185;-38
2022/05/05 08:32:04;;;;;;;16.85;2.83;;;;;;;21.51;58.06;99777.72;7311387;19;129747;-42
2022/05/05 08:34:29;;;;;;;25.42;3.50;;;;;;;21.46;57.66;99780.72;7303143;19;128983;-39
2022/05/05 08:36:54;;;;;;;18.40;2.75;;;;;;;21.46;57.95;99785.13;7307427;19;153955;-38
2022/05/05 08:39:20;;;;;;;26.13;3.33;;;;;;;21.39;58.17;99769.16;7306060;19;158356;-39
2022/05/05 08:41:47;;;;;;;10.60;1.92;;;;;;;21.48;57.91;99776.19;7313103;19;129133;-38
2022/05/05 08:44:12;;;;;;;13.75;2.22;;;;;;;21.49;57.20;99787.47;7309733;19;129401;-41
2022/05/05 08:46:39;;;;;;;18.17;2.47;;;;;;;21.48;57.88;99780.59;7310376;19;152206;-41
2022/05/05 08:49:06;;;;;;;20.15;2.92;;;;;;;21.48;58.35;99777.97;7312803;19;129076;-38
2022/05/05 08:51:53;;;;;;;35.72;4.13;;;;;;;21.34;57.56;99763.50;7311708;19;129327;-37
2022/05/05 08:54:21;;;;;;;3.50;1.40;;;;;;;21.39;57.85;99771.75;7309141;19;129087;-40
2022/05/05 08:56:50;;;;;;;19.38;2.63;;;;;;;21.38;57.76;99767.50;7310630;19;129184;-37
2022/05/05 08:59:19;;;;;;;16.92;2.40;;;;;;;21.47;58.26;99769.28;7312534;19;129233;-38
2022/05/05 09:01:45;;;;;;;23.23;3.22;;;;;;;21.37;57.63;99763.22;7311226;19;129457;-40
2022/05/05 09:04:11;;;;;;;13.20;2.00;;;;;;;21.44;58.02;99772.19;7310627;19;129240;-37
2022/05/05 09:06:51;;;;;;;18.65;2.90;;;;;;;21.46;57.92;99770.28;7312424;19;129117;-41
2022/05/05 09:09:30;;;;;;;16.77;2.38;;;;;;;21.44;57.51;99764.34;7312168;19;130809;-37
2022/05/05 09:12:14;;;;;;;33.55;4.47;;;;;;;21.46;57.27;99767.66;7309358;19;129396;-37
2022/05/05 09:14:43;;;;;;;15.02;2.13;;;;;;;21.49;57.61;99770.00;7309821;19;129045;-38
2022/05/05 09:17:10;;;;;;;3.50;1.30;;;;;;;21.46;57.92;99766.81;7309548;19;129167;-38
2022/05/05 09:19:42;;;;;;;12.73;2.13;;;;;;;21.49;57.58;99770.00;7311184;19;129495;-36
2022/05/05 09:22:08;;;;;;;30.80;3.75;;;;;;;21.41;58.07;99772.47;7311508;19;129648;-37
2022/05/05 09:24:34;;;;;;;19.05;2.90;;;;;;;21.42;58.02;99766.25;7308255;19;128921;-38
2022/05/05 09:27:14;;;;;;;30.87;3.93;;;;;;;21.47;57.54;99779.75;7309722;19;128847;-43
2022/05/05 09:29:39;;;;;;;14.82;2.28;;;;;;;21.45;58.03;99784.28;7310475;19;129636;-38
2022/05/05 09:32:12;;;;;;;21.02;3.28;;;;;;;21.48;57.96;99786.66;7309821;19;158654;-38
2022/05/05 09:34:39;;;;;;;25.80;3.45;;;;;;;21.46;58.09;99793.81;7305184;19;129011;-38
2022/05/05 09:37:20;;;;;;;22.33;3.47;;;;;;;21.52;57.46;99795.88;7308416;19;129063;-41
2022/05/05 09:39:46;;;;;;;14.80;2.30;;;;;;;21.43;57.46;99798.47;7310884;19;129518;-37
2022/05/05 09:42:11;;;;;;;25.10;3.38;;;;;;;21.52;58.25;99803.72;7310564;19;129422;-37
2022/05/05 09:44:45;;;;;;;17.50;2.58;;;;;;;21.36;58.26;99790.34;7306075;19;154046;-41
2022/05/05 09:47:15;;;;;;;24.02;3.50;;;;;;;21.48;57.64;99799.75;7309303;19;129667;-39
2022/05/05 09:49:40;;;;;;;20.63;2.67;;;;;;;21.45;57.58;99817.50;7310790;19;130991;-38
2022/05/05 09:57:41;;;;;;;24.90;3.17;;;;;;;21.45;58.11;99812.25;7304249;19;129625;-37
2022/05/05 10:00:38;;;;;;;20.83;2.70;;;;;;;21.46;58.29;99809.50;7309353;19;130749;-37
2022/05/05 10:05:52;;;;;;;18.67;2.67;;;;;;;21.45;58.24;99822.72;7306663;19;129719;-37
2022/05/05 10:08:21;;;;;;;20.63;2.47;;;;;;;21.41;57.37;99822.16;7310081;19;129471;-39
2022/05/05 10:10:46;;;;;;;18.75;2.45;;;;;;;21.45;57.52;99822.72;7309798;19;129076;-38
2022/05/05 10:13:13;;;;;;;16.35;2.28;;;;;;;21.43;57.92;99819.41;7311025;19;129747;-37
2022/05/05 10:15:39;;;;;;;17.77;2.47;;;;;;;21.44;57.79;99821.03;7315711;19;129102;-37
2022/05/05 10:18:04;;;;;;;23.02;2.92;;;;;;;21.50;57.69;99825.75;7313965;19;129349;-40
2022/05/05 10:20:32;;;;;;;40.70;4.95;;;;;;;21.47;58.36;99824.22;7312989;19;131921;-39
2022/05/05 10:23:05;;;;;;;19.38;2.63;;;;;;;21.46;58.01;99808.66;7314840;19;131153;-41
2022/05/05 10:25:33;;;;;;;41.08;5.40;;;;;;;21.47;57.89;99811.16;7315304;19;129193;-37
2022/05/05 10:27:59;;;;;;;19.15;2.83;;;;;;;21.45;57.90;99820.91;7317059;19;129257;-38
2022/05/05 10:30:35;;;;;;;19.33;2.65;;;;;;;21.51;57.35;99815.16;7316440;19;129031;-37
2022/05/05 10:33:08;;;;;;;59.33;6.35;;;;;;;21.42;57.39;99820.38;7311624;19;129466;-40
2022/05/05 10:35:39;;;;;;;34.00;4.40;;;;;;;21.46;57.62;99811.28;7312476;19;128866;-42
2022/05/05 10:38:42;;;;;;;18.05;2.38;;;;;;;21.49;57.95;99817.06;7313906;19;129105;-40
2022/05/05 10:41:39;;;;;;;27.50;3.40;;;;;;;21.50;58.03;99816.09;7315190;19;129615;-37
2022/05/05 10:44:16;;;;;;;21.35;2.90;;;;;;;21.48;57.53;99812.81;7313306;19;129934;-39
2022/05/05 10:46:58;;;;;;;19.13;2.58;;;;;;;21.45;57.58;99817.50;7314786;19;128917;-37
2022/05/05 10:52:12;;;;;;;21.35;3.13;;;;;;;21.48;57.38;99810.22;7309981;19;148221;-38
2022/05/05 10:54:39;;;;;;;12.38;2.40;;;;;;;21.41;57.57;99810.84;7311460;19;129252;-39
2022/05/05 10:57:23;;;;;;;20.65;2.70;;;;;;;21.43;57.67;99807.16;7312799;19;128824;-40
2022/05/05 11:00:07;;;;;;;69.07;8.73;;;;;;;21.49;58.40;99814.47;7310048;19;154275;-41
2022/05/05 11:02:33;;;;;;;21.55;2.90;;;;;;;21.40;57.93;99819.69;7313296;19;129609;-39
2022/05/05 11:05:27;;;;;;;25.02;3.40;;;;;;;21.42;57.73;99818.56;7313798;19;129801;-41
2022/05/05 11:07:54;;;;;;;61.15;7.40;;;;;;;21.41;57.48;99814.31;7313666;19;129399;-38
2022/05/05 11:10:42;;;;;;;18.90;2.47;;;;;;;21.52;58.26;99808.97;7313477;19;128878;-44
2022/05/05 11:13:34;;;;;;;27.70;3.60;;;;;;;21.49;57.48;99814.47;7309730;19;158282;-38
2022/05/05 11:22:06;;;;;;;19.23;3.08;;;;;;;21.42;57.55;99821.19;7315703;19;129353;-43
2022/05/05 11:24:31;;;;;;;13.95;2.22;;;;;;;21.41;56.98;99811.69;7308757;19;130366;-37
2022/05/05 11:26:57;;;;;;;21.17;2.97;;;;;;;21.42;57.51;99807.31;7313626;19;129593;-39
2022/05/05 11:29:22;;;;;;;22.45;3.50;;;;;;;21.45;58.04;99812.25;7303702;19;154913;-37
2022/05/05 11:31:58;;;;;;;16.13;2.35;;;;;;;21.37;57.41;99794.59;7308798;19;154301;-37
2022/05/05 11:34:30;;;;;;;24.05;3.10;;;;;;;21.40;57.73;99799.56;7312584;19;129276;-37
2022/05/05 11:36:57;;;;;;;21.88;3.17;;;;;;;21.41;58.09;99816.09;7311043;19;129388;-38
2022/05/05 11:39:22;;;;;;;10.57;2.20;;;;;;;21.45;57.96;99807.84;7307378;19;128977;-38
2022/05/05 11:42:05;;;;;;;20.55;3.00;;;;;;;21.44;57.55;99800.97;7313965;19;142268;-36
2022/05/05 11:44:36;;;;;;;16.88;2.63;;;;;;;21.41;57.19;99796.00;7313107;19;129339;-37
2022/05/05 11:47:08;;;;;;;18.88;2.75;;;;;;;21.48;57.97;99796.28;7314094;19;129684;-38
2022/05/05 11:49:35;;;;;;;7.90;1.88;;;;;;;21.46;57.71;99796.44;7315513;19;129042;-38
2022/05/05 11:52:00;;;;;;;24.98;3.60;;;;;;;21.35;57.60;99788.69;7313341;19;129568;-37
2022/05/05 11:54:28;;;;;;;12.80;2.47;;;;;;;21.46;57.61;99799.03;7310942;19;142129;-37
2022/05/05 11:56:53;;;;;;;11.45;2.42;;;;;;;21.41;58.03;99801.22;7312622;19;129273;-38
2022/05/05 12:02:13;;;;;;;28.70;3.95;;;;;;;21.43;57.77;99783.63;7313753;19;129291;-37